createdAt,value
2019-05-09T00:02:43.603Z,83.94
2019-05-09T00:06:45.509Z,83.88
2019-05-09T00:10:47.669Z,84.13
2019-05-09T00:14:51.314Z,83.91
2019-05-09T00:18:54.264Z,84.66
2019-05-09T00:22:56.777Z,84.85
2019-05-09T00:26:58.936Z,84.53
2019-05-09T00:31:05.693Z,85.19
2019-05-09T00:35:14.280Z,85.29
2019-05-09T00:39:16.303Z,85.00
2019-05-09T00:43:18.292Z,85.47
2019-05-09T00:47:26.534Z,85.44
2019-05-09T00:51:28.596Z,85.54
2019-05-09T00:55:30.493Z,85.79
2019-05-09T00:59:33.248Z,85.82
2019-05-09T01:03:35.338Z,86.39
2019-05-09T01:07:37.200Z,86.60
2019-05-09T01:11:39.350Z,86.75
2019-05-09T01:15:41.176Z,86.58
2019-05-09T01:19:43.326Z,86.56
2019-05-09T01:23:45.290Z,86.66
2019-05-09T01:27:47.256Z,86.75
2019-05-09T01:31:49.076Z,86.89
2019-05-09T01:35:50.960Z,86.95
2019-05-09T01:39:53.419Z,86.91
2019-05-09T01:43:55.449Z,87.04
2019-05-09T01:47:57.406Z,87.18
2019-05-09T01:52:03.388Z,87.34
2019-05-09T01:56:05.302Z,87.58
2019-05-09T02:00:07.801Z,87.82
2019-05-09T02:04:09.677Z,87.64
2019-05-09T02:08:14.078Z,87.75
2019-05-09T02:12:15.120Z,87.58
2019-05-09T02:16:54.205Z,87.50
2019-05-09T02:20:56.041Z,87.55
2019-05-09T02:24:58.012Z,87.66
2019-05-09T02:28:59.923Z,88.31
2019-05-09T02:33:04.805Z,88.33
2019-05-09T02:37:05.505Z,88.81
2019-05-09T02:41:08.641Z,88.65
2019-05-09T02:45:11.419Z,88.77
2019-05-09T02:49:13.304Z,88.80
2019-05-09T02:53:15.420Z,88.76
2019-05-09T02:57:18.502Z,88.46
2019-05-09T03:01:33.968Z,88.44
2019-05-09T03:05:38.372Z,88.50
2019-05-09T03:09:39.647Z,88.27
2019-05-09T03:13:41.620Z,88.81
2019-05-09T03:17:43.622Z,88.50
2019-05-09T03:21:58.659Z,88.29
2019-05-09T03:26:00.556Z,88.23
2019-05-09T03:30:04.978Z,88.01
2019-05-09T03:34:09.394Z,87.88
2019-05-09T03:38:10.823Z,87.99
2019-05-09T03:42:12.674Z,87.81
2019-05-09T03:46:21.400Z,87.72
2019-05-09T03:50:23.206Z,87.06
2019-05-09T03:54:28.259Z,87.23
2019-05-09T03:58:30.312Z,86.78
2019-05-09T04:02:32.705Z,86.34
2019-05-09T04:06:34.804Z,85.58
2019-05-09T04:10:38.535Z,84.48
2019-05-09T04:14:40.202Z,83.58
2019-05-09T04:18:43.169Z,82.87
2019-05-09T04:22:45.378Z,81.64
2019-05-09T04:27:12.475Z,80.46
2019-05-09T04:31:14.418Z,77.75
2019-05-09T04:35:17.621Z,76.48
2019-05-09T04:39:23.552Z,73.86
2019-05-09T04:43:34.609Z,71.21
2019-05-09T04:47:27.794Z,70.65
2019-05-09T04:51:29.857Z,68.32
2019-05-09T04:55:33.332Z,65.23
2019-05-09T04:59:37.398Z,65.39
2019-05-09T05:03:40.031Z,63.37
2019-05-09T05:07:42.984Z,61.37
2019-05-09T05:11:47.137Z,59.88
2019-05-09T05:15:48.726Z,55.69
2019-05-09T05:19:51.228Z,57.33
2019-05-09T05:24:11.069Z,55.30
2019-05-09T05:28:12.906Z,55.55
2019-05-09T05:32:24.293Z,53.24
2019-05-09T05:36:27.950Z,52.18
2019-05-09T05:40:33.351Z,51.86
2019-05-09T05:44:33.562Z,52.44
2019-05-09T05:48:38.144Z,50.86
2019-05-09T05:52:39.744Z,49.30
2019-05-09T05:56:41.813Z,49.03
2019-05-09T06:00:43.651Z,47.18
2019-05-09T06:04:45.528Z,47.63
2019-05-09T06:08:48.489Z,47.70
2019-05-09T06:12:50.596Z,45.59
2019-05-09T06:16:52.710Z,46.02
2019-05-09T06:20:54.575Z,44.75
2019-05-09T06:24:58.242Z,44.88
2019-05-09T06:28:59.984Z,43.50
2019-05-09T06:33:04.888Z,42.73
2019-05-09T06:37:08.611Z,43.94
2019-05-09T06:41:12.087Z,42.47
2019-05-09T06:45:31.343Z,41.98
2019-05-09T06:49:37.790Z,41.86
2019-05-09T06:53:39.862Z,41.20
2019-05-09T06:57:43.162Z,40.95
2019-05-09T07:01:59.843Z,41.46
2019-05-09T07:06:19.223Z,40.30
2019-05-09T07:10:21.194Z,41.51
2019-05-09T07:14:33.310Z,40.62
2019-05-09T07:18:33.864Z,41.12
2019-05-09T07:22:39.424Z,40.20
2019-05-09T07:26:41.536Z,39.50
2019-05-09T07:31:11.591Z,39.64
2019-05-09T07:35:12.943Z,40.59
2019-05-09T07:39:14.758Z,39.44
2019-05-09T07:43:18.005Z,39.32
2019-05-09T07:47:20.131Z,38.97
2019-05-09T07:51:22.508Z,38.29
2019-05-09T07:55:24.344Z,38.65
2019-05-09T07:59:27.468Z,39.01
2019-05-09T08:03:29.461Z,38.47
2019-05-09T08:07:33.208Z,38.92
2019-05-09T08:11:37.479Z,38.89
2019-05-09T08:15:38.679Z,38.46
2019-05-09T08:19:40.494Z,38.79
2019-05-09T08:23:42.500Z,37.08
2019-05-09T08:27:44.671Z,37.22
2019-05-09T08:31:48.580Z,37.32
2019-05-09T08:35:52.623Z,37.28
2019-05-09T08:39:54.151Z,36.29
2019-05-09T08:43:57.546Z,36.24
2019-05-09T08:47:59.745Z,34.84
2019-05-09T08:52:13.037Z,36.83
2019-05-09T08:56:12.929Z,35.13
2019-05-09T09:00:14.441Z,35.55
2019-05-09T09:04:18.815Z,34.54
2019-05-09T09:08:20.159Z,33.77
2019-05-09T09:12:30.285Z,34.30
2019-05-09T09:16:28.170Z,34.39
2019-05-09T09:20:29.540Z,34.66
2019-05-09T09:24:31.627Z,34.81
2019-05-09T09:28:33.506Z,34.79
2019-05-09T09:32:38.526Z,34.68
2019-05-09T09:36:39.605Z,36.08
2019-05-09T09:40:41.470Z,36.03
2019-05-09T09:44:43.864Z,35.11
2019-05-09T09:48:48.019Z,33.78
2019-05-09T09:52:49.760Z,34.79
2019-05-09T09:56:53.452Z,34.17
2019-05-09T10:01:08.989Z,34.16
2019-05-09T10:05:11.331Z,34.56
2019-05-09T10:09:13.357Z,33.78
2019-05-09T10:13:15.273Z,32.97
2019-05-09T10:17:42.368Z,32.78
2019-05-09T10:21:48.761Z,32.75
2019-05-09T10:25:51.163Z,32.71
2019-05-09T10:29:52.989Z,32.06
2019-05-09T10:33:54.986Z,32.65
2019-05-09T10:37:58.906Z,32.44
2019-05-09T10:42:02.325Z,32.86
2019-05-09T10:46:15.496Z,31.80
2019-05-09T10:50:18.352Z,31.90
2019-05-09T10:54:20.599Z,32.67
2019-05-09T10:58:23.845Z,31.03
2019-05-09T11:02:27.925Z,30.92
2019-05-09T11:06:29.467Z,31.10
2019-05-09T11:10:33.043Z,30.68
2019-05-09T11:14:37.518Z,31.00
2019-05-09T11:18:38.936Z,31.95
2019-05-09T11:22:40.993Z,30.79
2019-05-09T11:26:42.928Z,31.00
2019-05-09T11:30:44.830Z,31.06
2019-05-09T11:34:48.651Z,31.06
2019-05-09T11:38:51.091Z,30.94
2019-05-09T11:42:53.011Z,31.64
2019-05-09T11:46:55.216Z,31.09
2019-05-09T11:50:58.220Z,31.69
2019-05-09T11:55:00.809Z,31.71
2019-05-09T11:59:02.668Z,30.14
2019-05-09T12:03:04.551Z,30.70
2019-05-09T12:07:07.928Z,28.95
2019-05-09T12:11:10.110Z,29.37
2019-05-09T12:15:12.157Z,28.61
2019-05-09T12:19:14.110Z,28.99
2019-05-09T12:23:19.636Z,28.83
2019-05-09T12:27:19.803Z,29.32
2019-05-09T12:31:22.847Z,30.20
2019-05-09T12:35:24.837Z,29.47
2019-05-09T12:39:27.499Z,30.00
2019-05-09T12:43:29.876Z,29.64
2019-05-09T12:47:31.882Z,30.01
2019-05-09T12:51:33.875Z,30.78
2019-05-09T12:55:38.279Z,30.29
2019-05-09T12:59:48.450Z,29.19
2019-05-09T13:03:43.054Z,29.20
2019-05-09T13:07:44.892Z,30.20
2019-05-09T13:11:48.252Z,29.54
2019-05-09T13:16:11.991Z,30.06
2019-05-09T13:20:14.413Z,29.71
2019-05-09T13:24:19.643Z,31.09
2019-05-09T13:28:20.288Z,31.58
2019-05-09T13:32:22.524Z,30.83
2019-05-09T13:36:28.131Z,30.68
2019-05-09T13:40:29.614Z,30.55
2019-05-09T13:44:31.476Z,29.74
2019-05-09T13:48:57.253Z,29.06
2019-05-09T13:52:38.735Z,28.13
2019-05-09T13:56:40.650Z,28.25
2019-05-09T14:00:55.875Z,27.70
2019-05-09T14:04:48.614Z,27.02
2019-05-09T14:08:51.137Z,27.00
2019-05-09T14:13:05.829Z,26.65
2019-05-09T14:16:59.010Z,27.67
2019-05-09T14:21:00.221Z,25.31
2019-05-09T14:29:50.259Z,25.88
2019-05-09T14:34:02.881Z,24.67
2019-05-09T14:38:11.802Z,24.50
2019-05-09T14:42:13.759Z,24.84
2019-05-09T14:46:18.238Z,23.97
2019-05-09T14:50:19.543Z,23.57
2019-05-09T14:54:21.793Z,23.43
2019-05-09T14:58:23.667Z,22.95
2019-05-09T15:02:25.537Z,22.87
2019-05-09T15:06:28.256Z,22.01
2019-05-09T15:10:30.373Z,22.73
2019-05-09T15:14:32.333Z,22.95
2019-05-09T15:18:34.983Z,23.64
2019-05-09T15:22:38.765Z,23.65
2019-05-09T15:26:40.544Z,22.82
2019-05-09T15:30:42.363Z,22.64
2019-05-09T15:34:44.257Z,23.29
2019-05-09T15:38:48.458Z,22.78
2019-05-09T15:42:50.089Z,23.12
2019-05-09T15:47:07.564Z,23.53
2019-05-09T15:51:09.759Z,24.12
2019-05-09T15:55:12.513Z,24.07
2019-05-09T15:59:14.408Z,25.42
2019-05-09T16:03:18.442Z,27.09
2019-05-09T16:07:20.235Z,28.64
2019-05-09T16:11:22.089Z,29.35
2019-05-09T16:15:28.164Z,29.76
2019-05-09T16:19:28.941Z,30.80
2019-05-09T16:23:30.851Z,31.27
2019-05-09T16:27:34.265Z,32.14
2019-05-09T16:31:38.794Z,32.11
2019-05-09T16:35:39.905Z,32.46
2019-05-09T16:39:42.105Z,32.81
2019-05-09T16:43:43.935Z,32.64
2019-05-09T16:47:48.366Z,32.91
2019-05-09T16:51:49.807Z,32.88
2019-05-09T16:55:51.658Z,32.66
2019-05-09T16:59:53.491Z,32.67
2019-05-09T17:03:57.455Z,33.01
2019-05-09T17:07:58.960Z,33.52
2019-05-09T17:12:00.982Z,33.97
2019-05-09T17:16:02.856Z,33.90
2019-05-09T17:20:05.204Z,34.52
2019-05-09T17:24:09.703Z,34.93
2019-05-09T17:28:11.725Z,35.28
2019-05-09T17:32:13.709Z,35.61
2019-05-09T17:36:18.037Z,35.93
2019-05-09T17:40:19.382Z,36.22
2019-05-09T17:44:21.378Z,36.59
2019-05-09T17:48:25.053Z,36.76
2019-05-09T17:52:26.972Z,37.71
2019-05-09T17:56:28.811Z,38.19
2019-05-09T18:00:31.116Z,39.02
2019-05-09T18:04:33.086Z,39.22
2019-05-09T18:08:37.563Z,39.41
2019-05-09T18:12:38.784Z,40.12
2019-05-09T18:16:40.745Z,40.67
2019-05-09T18:20:43.225Z,40.84
2019-05-09T18:24:45.235Z,41.14
2019-05-09T18:28:47.929Z,41.97
2019-05-09T18:33:07.541Z,42.41
2019-05-09T18:37:09.516Z,42.42
2019-05-09T18:41:11.447Z,42.68
2019-05-09T18:45:17.375Z,43.16
2019-05-09T18:49:19.638Z,43.31
2019-05-09T18:53:22.325Z,43.44
2019-05-09T18:57:24.305Z,43.39
2019-05-09T19:01:26.159Z,43.67
2019-05-09T19:05:28.091Z,44.28
2019-05-09T19:09:29.954Z,44.64
2019-05-09T19:13:31.919Z,43.89
2019-05-09T19:18:02.016Z,44.05
2019-05-09T19:22:21.041Z,44.04
2019-05-09T19:26:27.612Z,43.75
2019-05-09T19:30:29.523Z,43.52
2019-05-09T19:34:31.391Z,43.48
2019-05-09T19:38:33.327Z,44.52
2019-05-09T19:42:35.253Z,43.69
2019-05-09T19:46:37.260Z,43.44
2019-05-09T19:50:39.693Z,43.65
2019-05-09T19:54:41.559Z,43.70
2019-05-09T19:58:43.387Z,43.08
2019-05-09T20:02:45.336Z,43.33
2019-05-09T20:06:47.266Z,43.27
2019-05-09T20:11:23.286Z,43.29
2019-05-09T20:15:25.795Z,43.43
2019-05-09T20:19:27.754Z,43.75
2019-05-09T20:23:29.616Z,43.79
2019-05-09T20:27:31.564Z,43.58
2019-05-09T20:31:33.405Z,43.63
2019-05-09T20:35:35.307Z,44.00
2019-05-09T20:39:37.422Z,43.66
2019-05-09T20:43:39.481Z,44.31
2019-05-09T20:47:41.488Z,44.64
2019-05-09T20:51:43.834Z,44.27
2019-05-09T20:55:45.845Z,44.73
2019-05-09T20:59:47.885Z,44.98
2019-05-09T21:03:59.420Z,45.34
2019-05-09T21:07:53.676Z,45.30
2019-05-09T21:11:55.803Z,46.00
2019-05-09T21:15:57.906Z,46.00
2019-05-09T21:19:59.948Z,46.37
2019-05-09T21:24:02.027Z,45.90
2019-05-09T21:28:05.341Z,46.41
2019-05-09T21:32:08.558Z,46.88
2019-05-09T21:36:10.477Z,47.14
2019-05-09T21:40:12.972Z,47.62
2019-05-09T21:44:15.059Z,47.90
2019-05-09T21:48:17.173Z,47.57
2019-05-09T21:52:19.631Z,47.87
2019-05-09T21:56:21.680Z,47.96
2019-05-09T22:00:29.236Z,47.86
2019-05-09T22:04:32.438Z,48.46
2019-05-09T22:08:34.252Z,48.17
2019-05-09T22:12:36.215Z,48.51
2019-05-09T22:16:38.027Z,48.58
2019-05-09T22:20:39.933Z,48.88
2019-05-09T22:24:41.749Z,49.13
2019-05-09T22:28:43.620Z,49.39
2019-05-09T22:32:45.550Z,49.64
2019-05-09T22:36:47.490Z,49.49
2019-05-09T22:40:49.597Z,49.53
2019-05-09T22:44:51.471Z,49.41
2019-05-09T22:48:53.283Z,50.07
2019-05-09T22:52:55.522Z,50.25
2019-05-09T22:56:57.351Z,50.15
2019-05-09T23:00:59.242Z,50.60
2019-05-09T23:05:01.103Z,50.77
2019-05-09T23:09:04.494Z,51.65
2019-05-09T23:13:06.378Z,52.08
2019-05-09T23:17:09.520Z,51.38
2019-05-09T23:21:12.377Z,51.74
2019-05-09T23:25:14.412Z,52.43
2019-05-09T23:29:16.411Z,52.11
2019-05-09T23:33:18.371Z,51.98
2019-05-09T23:37:20.159Z,51.91
2019-05-09T23:41:22.031Z,51.77
2019-05-09T23:45:23.840Z,51.79
2019-05-09T23:49:25.713Z,52.37
2019-05-09T23:53:36.019Z,52.41
2019-05-09T23:57:55.473Z,52.24
